sensor_id;sensor_type;location;lat;lon;timestamp;temperature;humidity
15698;DHT22;7949;48.726;9.102;2022-09-09T16:06:57;20.90;90.60
15698;DHT22;7949;48.726;9.102;2022-09-09T16:09:25;20.80;91.40
15698;DHT22;7949;48.726;9.102;2022-09-09T16:11:53;20.70;91.00
15698;DHT22;7949;48.726;9.102;2022-09-09T16:14:22;20.60;91.30
15698;DHT22;7949;48.726;9.102;2022-09-09T16:16:50;20.40;91.90
15698;DHT22;7949;48.726;9.102;2022-09-09T16:19:17;20.30;92.60
15698;DHT22;7949;48.726;9.102;2022-09-09T16:21:46;20.20;92.50
15698;DHT22;7949;48.726;9.102;2022-09-09T17:05:46;18.80;98.90
15698;DHT22;7949;48.726;9.102;2022-09-09T17:08:13;18.60;98.70
15698;DHT22;7949;48.726;9.102;2022-09-09T17:10:41;18.40;99.30
15698;DHT22;7949;48.726;9.102;2022-09-09T17:13:08;18.30;99.80
15698;DHT22;7949;48.726;9.102;2022-09-09T17:15:39;18.20;99.90
15698;DHT22;7949;48.726;9.102;2022-09-09T17:18:08;18.10;99.90
15698;DHT22;7949;48.726;9.102;2022-09-09T17:20:35;18.00;99.90
15698;DHT22;7949;48.726;9.102;2022-09-09T17:23:04;17.90;99.90
15698;DHT22;7949;48.726;9.102;2022-09-09T17:25:31;17.80;99.90
15698;DHT22;7949;48.726;9.102;2022-09-09T17:27:57;17.70;99.90
15698;DHT22;7949;48.726;9.102;2022-09-09T17:30:25;17.60;99.90
15698;DHT22;7949;48.726;9.102;2022-09-09T17:32:53;17.50;99.90
15698;DHT22;7949;48.726;9.102;2022-09-09T17:35:19;17.50;99.90
15698;DHT22;7949;48.726;9.102;2022-09-09T17:37:46;17.30;99.90
15698;DHT22;7949;48.726;9.102;2022-09-09T17:40:15;17.20;99.90
15698;DHT22;7949;48.726;9.102;2022-09-09T17:42:41;17.00;99.90
15698;DHT22;7949;48.726;9.102;2022-09-09T17:45:09;17.00;99.90
15698;DHT22;7949;48.726;9.102;2022-09-09T17:47:36;16.90;99.90
15698;DHT22;7949;48.726;9.102;2022-09-09T17:50:07;16.80;99.90
15698;DHT22;7949;48.726;9.102;2022-09-09T17:52:37;16.70;99.90
15698;DHT22;7949;48.726;9.102;2022-09-09T17:55:04;16.70;99.90
15698;DHT22;7949;48.726;9.102;2022-09-09T17:57:37;16.60;99.90
15698;DHT22;7949;48.726;9.102;2022-09-09T18:00:08;16.50;99.90
15698;DHT22;7949;48.726;9.102;2022-09-09T18:02:36;16.40;99.90
15698;DHT22;7949;48.726;9.102;2022-09-09T18:05:04;16.40;99.90
15698;DHT22;7949;48.726;9.102;2022-09-09T18:07:31;16.30;99.90
15698;DHT22;7949;48.726;9.102;2022-09-09T18:09:58;16.30;99.90
15698;DHT22;7949;48.726;9.102;2022-09-09T18:12:25;16.20;99.90
15698;DHT22;7949;48.726;9.102;2022-09-09T18:14:54;16.20;99.90
15698;DHT22;7949;48.726;9.102;2022-09-09T18:17:21;16.20;99.90
15698;DHT22;7949;48.726;9.102;2022-09-09T18:19:48;16.20;99.90
15698;DHT22;7949;48.726;9.102;2022-09-09T18:22:15;16.20;99.90
15698;DHT22;7949;48.726;9.102;2022-09-09T18:24:44;16.20;99.90
15698;DHT22;7949;48.726;9.102;2022-09-09T18:27:13;16.20;99.90
15698;DHT22;7949;48.726;9.102;2022-09-09T18:29:40;16.20;99.90
15698;DHT22;7949;48.726;9.102;2022-09-09T18:32:09;16.20;99.90
15698;DHT22;7949;48.726;9.102;2022-09-09T18:34:36;16.20;99.90
15698;DHT22;7949;48.726;9.102;2022-09-09T18:37:03;16.20;99.90
15698;DHT22;7949;48.726;9.102;2022-09-09T18:39:32;16.20;99.90
15698;DHT22;7949;48.726;9.102;2022-09-09T18:42:00;16.20;99.90
15698;DHT22;7949;48.726;9.102;2022-09-09T18:44:28;16.30;99.90
15698;DHT22;7949;48.726;9.102;2022-09-09T18:46:56;16.30;99.90
15698;DHT22;7949;48.726;9.102;2022-09-09T18:49:25;16.30;99.90
15698;DHT22;7949;48.726;9.102;2022-09-09T18:51:53;16.30;99.90
15698;DHT22;7949;48.726;9.102;2022-09-09T18:54:24;16.20;99.90
15698;DHT22;7949;48.726;9.102;2022-09-09T18:56:51;16.20;99.90
15698;DHT22;7949;48.726;9.102;2022-09-09T18:59:20;16.30;99.90
15698;DHT22;7949;48.726;9.102;2022-09-09T19:01:49;16.20;99.90
15698;DHT22;7949;48.726;9.102;2022-09-09T19:04:17;16.20;99.90
15698;DHT22;7949;48.726;9.102;2022-09-09T19:06:49;16.20;99.90
15698;DHT22;7949;48.726;9.102;2022-09-09T19:09:23;16.10;99.90
15698;DHT22;7949;48.726;9.102;2022-09-09T19:11:51;16.10;99.90
